Time;durP1;ratioP1;P1;durP2;ratioP2;P2;SDS_P1;SDS_P2;PMS_P1;PMS_P2;Temp;Humidity;BMP_temperature;BMP_pressure;BME280_temperature;BME280_humidity;BME280_pressure;Samples;Min_cycle;Max_cycle;Signal;HPM_P1;HPM_P2
2023/09/05 00:01:52;;;;;;;4.82;1.88;;;;;;;22.95;47.40;100383.66;5024241;28;20053;-77
2023/09/05 00:04:19;;;;;;;3.28;1.90;;;;;;;22.95;47.40;100383.66;5013424;28;20061;-75
2023/09/05 00:06:49;;;;;;;3.15;1.63;;;;;;;22.93;47.34;100381.09;5013108;28;20140;-77
2023/09/05 00:09:19;;;;;;;2.80;2.10;;;;;;;22.94;47.41;100385.47;5013163;28;20061;-79
2023/09/05 00:11:46;;;;;;;2.92;1.95;;;;;;;22.93;47.42;100386.47;4996404;28;20041;-76
2023/09/05 00:14:15;;;;;;;3.72;2.08;;;;;;;22.93;47.52;100389.16;5021920;28;20103;-76
2023/09/05 00:16:42;;;;;;;3.00;1.83;;;;;;;22.91;47.37;100386.63;5032658;28;20502;-77
2023/09/05 00:19:10;;;;;;;2.95;1.70;;;;;;;22.90;47.22;100390.31;5032735;28;20056;-76
2023/09/05 00:21:36;;;;;;;1.77;1.67;;;;;;;22.90;47.54;100398.38;5031527;28;20057;-77
2023/09/05 00:24:22;;;;;;;3.45;2.03;;;;;;;22.86;47.39;100406.88;5012758;28;20046;-76
2023/09/05 00:26:50;;;;;;;3.67;1.90;;;;;;;22.90;47.47;100408.25;5012968;28;20093;-77
2023/09/05 00:29:19;;;;;;;2.88;1.92;;;;;;;22.89;47.70;100406.56;5012826;28;20053;-80
2023/09/05 00:31:49;;;;;;;3.17;1.85;;;;;;;22.86;47.73;100415.78;5027705;28;20041;-77
2023/09/05 00:34:16;;;;;;;5.05;2.20;;;;;;;22.87;47.47;100414.78;5032539;28;20064;-76
2023/09/05 00:36:43;;;;;;;2.70;1.77;;;;;;;22.86;47.72;100409.56;5032384;28;20053;-80
2023/09/05 00:39:09;;;;;;;2.70;2.00;;;;;;;22.83;47.91;100413.38;5014898;28;20097;-78
2023/09/05 00:41:37;;;;;;;2.03;1.80;;;;;;;22.82;47.99;100421.59;5020839;28;20490;-77
2023/09/05 00:44:05;;;;;;;5.00;2.38;;;;;;;22.78;47.62;100416.53;5028226;28;20123;-77
2023/09/05 00:46:33;;;;;;;2.85;2.15;;;;;;;22.77;48.04;100435.47;5032380;28;20046;-78
2023/09/05 00:49:03;;;;;;;2.78;2.05;;;;;;;22.73;48.06;100420.66;5032082;28;20570;-77
2023/09/05 00:51:33;;;;;;;5.45;1.98;;;;;;;22.69;47.92;100417.44;5023823;28;20818;-76
2023/09/05 00:54:02;;;;;;;3.45;1.98;;;;;;;22.64;48.56;100419.72;5023932;28;20584;-76
2023/09/05 00:56:29;;;;;;;2.50;2.30;;;;;;;22.59;48.57;100420.19;4999526;28;20527;-78
2023/09/05 00:58:56;;;;;;;2.63;2.00;;;;;;;22.52;48.46;100425.28;5012299;28;20056;-77
2023/09/05 01:01:22;;;;;;;2.90;1.85;;;;;;;22.44;48.88;100419.81;5015856;28;20103;-78
2023/09/05 01:03:51;;;;;;;3.88;2.38;;;;;;;22.38;49.24;100420.41;5031932;28;20295;-77
2023/09/05 01:06:31;;;;;;;3.30;2.17;;;;;;;22.30;49.49;100420.28;5032013;28;20086;-75
2023/09/05 01:09:22;;;;;;;4.22;2.58;;;;;;;22.15;49.60;100420.78;5031800;28;20053;-76
2023/09/05 01:11:50;;;;;;;3.67;2.20;;;;;;;22.09;49.10;100414.16;5027227;28;20120;-81
2023/09/05 01:14:17;;;;;;;4.18;2.15;;;;;;;21.99;49.17;100413.38;4994514;28;20054;-77
2023/09/05 01:16:45;;;;;;;5.50;2.25;;;;;;;21.89;49.33;100421.44;5012044;28;20050;-78
2023/09/05 01:19:14;;;;;;;4.43;2.22;;;;;;;21.78;49.75;100419.78;5012045;28;20060;-75
2023/09/05 01:22:01;;;;;;;5.18;2.40;;;;;;;21.64;50.37;100418.34;4994205;28;20053;-78
2023/09/05 01:24:27;;;;;;;4.78;1.92;;;;;;;21.60;49.97;100415.13;5031512;28;20053;-77
2023/09/05 01:26:55;;;;;;;3.65;2.28;;;;;;;21.52;50.32;100420.34;5031688;28;20053;-78
2023/09/05 01:29:35;;;;;;;3.88;2.30;;;;;;;21.45;50.50;100416.53;5031545;28;20057;-76
2023/09/05 01:32:03;;;;;;;2.65;2.30;;;;;;;21.39;50.83;100407.25;5030971;28;20100;-76
2023/09/05 01:34:30;;;;;;;3.08;2.28;;;;;;;21.35;50.56;100403.19;4994432;28;20061;-76
2023/09/05 01:36:57;;;;;;;3.63;2.42;;;;;;;21.29;50.81;100403.72;5011557;28;20136;-77
2023/09/05 01:39:24;;;;;;;3.60;2.53;;;;;;;21.21;50.69;100397.28;5011544;28;20049;-77
2023/09/05 01:41:51;;;;;;;3.20;2.55;;;;;;;21.15;51.23;100397.81;5012552;28;20901;-77
2023/09/05 01:44:18;;;;;;;3.90;2.22;;;;;;;21.08;50.92;100407.38;5011632;28;20545;-77
2023/09/05 01:46:45;;;;;;;2.58;2.28;;;;;;;21.03;51.28;100398.94;4994106;28;20115;-75
2023/09/05 01:49:11;;;;;;;2.53;1.90;;;;;;;20.98;51.13;100406.56;5011328;28;20574;-77
2023/09/05 01:51:38;;;;;;;3.20;2.47;;;;;;;20.92;51.60;100411.47;5020020;28;20058;-77
2023/09/05 01:54:05;;;;;;;2.80;2.15;;;;;;;20.89;51.92;100414.44;5031230;28;20049;-77
2023/09/05 01:56:31;;;;;;;3.78;2.15;;;;;;;20.86;51.78;100417.34;5031012;28;20053;-75
2023/09/05 01:58:58;;;;;;;2.88;2.28;;;;;;;20.82;51.81;100416.78;5031164;28;20045;-80
2023/09/05 02:01:25;;;;;;;3.17;2.50;;;;;;;20.80;51.61;100413.41;5025658;28;20566;-76
2023/09/05 02:03:51;;;;;;;4.15;2.70;;;;;;;20.78;51.97;100406.50;5011187;28;20100;-77
2023/09/05 02:06:18;;;;;;;4.07;2.75;;;;;;;20.76;52.05;100413.81;5132251;22;20115;-79
2023/09/05 02:08:46;;;;;;;3.10;2.45;;;;;;;20.75;52.43;100417.47;5030994;28;20084;-79
2023/09/05 02:11:14;;;;;;;3.47;2.33;;;;;;;20.73;52.44;100420.28;5030161;28;20751;-79
2023/09/05 02:13:40;;;;;;;6.57;2.50;;;;;;;20.73;52.83;100416.75;5026333;28;20108;-78
2023/09/05 02:16:07;;;;;;;5.70;2.42;;;;;;;20.72;52.61;100417.75;5017819;28;20049;-79
2023/09/05 02:18:34;;;;;;;3.22;2.35;;;;;;;20.70;52.78;100421.41;5030774;28;20050;-79
2023/09/05 02:21:01;;;;;;;6.13;2.78;;;;;;;20.68;52.86;100423.38;5030452;28;20049;-77
2023/09/05 02:23:28;;;;;;;5.50;2.40;;;;;;;20.67;53.06;100413.66;5014476;28;20112;-79
2023/09/05 02:25:59;;;;;;;6.20;2.88;;;;;;;20.65;53.73;100429.00;5012209;28;20053;-77
2023/09/05 02:28:26;;;;;;;4.47;2.83;;;;;;;20.64;53.14;100419.28;5006325;28;20082;-79
2023/09/05 02:30:53;;;;;;;4.15;2.70;;;;;;;20.61;52.92;100422.25;5010730;28;20137;-79
2023/09/05 02:33:20;;;;;;;7.35;2.30;;;;;;;20.56;52.91;100413.78;5022984;28;20057;-79
2023/09/05 02:35:47;;;;;;;4.82;2.65;;;;;;;20.50;53.09;100420.53;5030831;28;20148;-78
2023/09/05 02:38:14;;;;;;;4.45;2.40;;;;;;;20.43;53.14;100409.53;5030872;28;20053;-79
2023/09/05 02:40:47;;;;;;;3.83;2.78;;;;;;;20.32;54.02;100404.28;5030481;28;20101;-79
2023/09/05 02:43:13;;;;;;;2.92;2.47;;;;;;;20.29;53.47;100410.75;5021920;28;20078;-78
2023/09/05 02:45:40;;;;;;;2.97;2.40;;;;;;;20.26;53.57;100412.84;5010792;28;20486;-78
2023/09/05 02:48:07;;;;;;;2.97;2.30;;;;;;;20.24;53.62;100420.13;5010980;28;20088;-78
2023/09/05 02:50:34;;;;;;;3.35;2.40;;;;;;;20.23;53.90;100413.09;5010919;28;20057;-78
2023/09/05 02:53:00;;;;;;;3.00;2.33;;;;;;;20.21;53.92;100412.38;5014381;28;20138;-79
2023/09/05 02:55:27;;;;;;;4.70;2.40;;;;;;;20.20;54.22;100411.56;5030572;28;20046;-78
2023/09/05 02:57:53;;;;;;;3.63;2.25;;;;;;;20.18;54.09;100411.69;5030341;28;20478;-78
2023/09/05 03:00:20;;;;;;;3.13;2.10;;;;;;;20.18;54.30;100413.50;5030163;28;20053;-81
2023/09/05 03:02:49;;;;;;;5.10;2.47;;;;;;;20.17;54.26;100414.47;5030455;28;20065;-79
2023/09/05 03:05:16;;;;;;;4.30;2.20;;;;;;;20.15;54.32;100414.63;5012166;28;20133;-79
2023/09/05 03:07:42;;;;;;;4.88;2.40;;;;;;;20.14;54.44;100410.25;5011234;28;20061;-79
2023/09/05 03:10:09;;;;;;;4.22;2.13;;;;;;;20.13;54.20;100416.59;5014368;28;20061;-78
2023/09/05 03:12:38;;;;;;;4.75;2.83;;;;;;;20.13;54.07;100411.25;5014008;28;20149;-79
2023/09/05 03:15:05;;;;;;;3.60;2.22;;;;;;;20.12;54.22;100408.69;5028233;28;20053;-78
2023/09/05 03:17:32;;;;;;;2.50;2.30;;;;;;;20.10;54.39;100400.81;5033854;28;20512;-79
2023/09/05 03:19:58;;;;;;;5.15;2.42;;;;;;;20.09;54.49;100398.28;5033802;28;20486;-78
2023/09/05 03:22:25;;;;;;;3.05;2.15;;;;;;;20.08;54.45;100401.94;5033632;28;20060;-79
2023/09/05 03:24:52;;;;;;;4.65;2.22;;;;;;;20.06;54.62;100399.38;5007427;28;20142;-77
2023/09/05 03:27:18;;;;;;;3.75;2.40;;;;;;;20.04;54.55;100398.69;5008266;28;20112;-78
2023/09/05 03:29:45;;;;;;;4.20;2.40;;;;;;;20.04;54.58;100396.00;5012608;28;20112;-79
2023/09/05 03:32:11;;;;;;;5.15;2.80;;;;;;;20.04;54.86;100396.84;5013840;28;20065;-79
2023/09/05 03:34:38;;;;;;;4.53;2.33;;;;;;;20.03;55.02;100391.63;5026795;28;20053;-79
2023/09/05 03:37:04;;;;;;;4.30;2.70;;;;;;;20.03;54.96;100389.81;5008784;28;20053;-78
2023/09/05 03:39:31;;;;;;;3.00;2.30;;;;;;;20.03;54.76;100386.28;5033066;28;20136;-79
2023/09/05 03:41:57;;;;;;;4.97;2.80;;;;;;;20.00;54.97;100383.91;5033331;28;20136;-79
2023/09/05 03:44:24;;;;;;;3.90;2.38;;;;;;;19.99;55.02;100384.84;5019624;28;20073;-79
2023/09/05 03:46:50;;;;;;;6.63;2.40;;;;;;;19.98;55.09;100383.13;5013747;28;20050;-79
2023/09/05 03:49:17;;;;;;;4.53;2.67;;;;;;;19.95;54.93;100376.25;5013661;28;20135;-79
2023/09/05 03:51:44;;;;;;;5.72;2.50;;;;;;;19.94;55.04;100377.22;5013337;28;20056;-79
2023/09/05 03:54:12;;;;;;;3.63;2.55;;;;;;;19.92;54.81;100382.69;5017118;28;20132;-79
2023/09/05 03:56:39;;;;;;;5.45;2.40;;;;;;;19.91;55.15;100386.34;5030893;28;20120;-79
2023/09/05 03:59:05;;;;;;;4.28;2.92;;;;;;;19.90;55.13;100397.16;5013272;28;20050;-79
2023/09/05 04:01:32;;;;;;;3.03;2.70;;;;;;;19.89;55.16;100390.97;5013314;28;20060;-79
2023/09/05 04:03:58;;;;;;;3.28;2.50;;;;;;;19.87;54.98;100390.28;5013485;28;20526;-78
2023/09/05 04:06:25;;;;;;;4.85;2.85;;;;;;;19.87;55.05;100392.09;5013670;28;20046;-79
2023/09/05 04:08:51;;;;;;;6.30;2.65;;;;;;;19.84;55.14;100387.03;5021852;28;20095;-80
2023/09/05 04:11:18;;;;;;;4.22;2.60;;;;;;;19.81;55.02;100387.28;5032690;28;20068;-79
2023/09/05 04:13:44;;;;;;;3.45;3.00;;;;;;;19.77;55.29;100384.00;5032814;28;20085;-79
2023/09/05 04:16:11;;;;;;;4.30;2.85;;;;;;;19.75;55.38;100388.66;5033004;28;20112;-79
2023/09/05 04:18:37;;;;;;;4.13;2.88;;;;;;;19.72;55.28;100397.78;5021287;28;20474;-79
2023/09/05 04:21:04;;;;;;;6.45;2.72;;;;;;;19.70;55.81;100390.88;5012923;28;20637;-80
2023/09/05 04:23:31;;;;;;;3.90;2.65;;;;;;;19.69;55.75;100395.38;5013033;28;20060;-79
2023/09/05 04:25:59;;;;;;;4.05;2.88;;;;;;;19.67;55.61;100394.66;5004234;28;20050;-79
2023/09/05 04:28:26;;;;;;;4.57;2.95;;;;;;;19.65;55.76;100389.44;5018344;28;20103;-79
2023/09/05 04:30:55;;;;;;;4.97;2.58;;;;;;;19.65;55.72;100393.94;5032505;28;20076;-80
2023/09/05 04:33:32;;;;;;;3.95;2.97;;;;;;;19.62;56.32;100395.03;5012642;28;20081;-79
2023/09/05 04:35:58;;;;;;;11.93;2.90;;;;;;;19.64;55.63;100393.09;5013022;28;20068;-79
2023/09/05 04:38:25;;;;;;;4.57;2.92;;;;;;;19.63;56.06;100388.72;5016157;28;20037;-80
2023/09/05 04:40:52;;;;;;;4.57;2.70;;;;;;;19.63;55.90;100390.56;5032635;28;20053;-79
2023/09/05 04:43:18;;;;;;;4.90;2.97;;;;;;;19.62;55.97;100384.38;5032499;28;20057;-79
2023/09/05 04:45:55;;;;;;;4.20;3.08;;;;;;;19.58;56.85;100390.13;5032366;28;20549;-79
2023/09/05 04:48:23;;;;;;;3.13;2.70;;;;;;;19.61;56.21;100392.50;5031903;28;20103;-79
2023/09/05 04:50:50;;;;;;;3.58;2.58;;;;;;;19.61;55.76;100390.69;5026755;28;20491;-79
2023/09/05 04:53:16;;;;;;;4.63;2.90;;;;;;;19.62;55.92;100400.38;5031052;28;20045;-79
2023/09/05 04:55:43;;;;;;;3.35;2.55;;;;;;;19.63;55.77;100386.03;5031747;28;20104;-79
2023/09/05 04:58:14;;;;;;;5.90;2.88;;;;;;;19.64;56.02;100384.22;5032147;28;20128;-79
2023/09/05 05:00:41;;;;;;;3.50;2.67;;;;;;;19.64;56.11;100384.22;5031779;28;20053;-79
2023/09/05 05:03:08;;;;;;;3.25;2.65;;;;;;;19.66;55.87;100387.59;5028592;28;20046;-79
2023/09/05 05:05:34;;;;;;;6.38;2.75;;;;;;;19.67;56.51;100392.81;5018029;28;20045;-79
2023/09/05 05:08:01;;;;;;;5.47;2.95;;;;;;;19.67;56.04;100390.16;5031742;28;20069;-79
2023/09/05 05:10:28;;;;;;;3.92;2.80;;;;;;;19.69;56.37;100394.53;5031603;28;20486;-79
2023/09/05 05:12:54;;;;;;;5.85;2.85;;;;;;;19.69;56.37;100391.88;5031481;28;20049;-80
2023/09/05 05:15:21;;;;;;;4.20;2.67;;;;;;;19.70;56.32;100397.06;5013358;28;20049;-78
2023/09/05 05:17:48;;;;;;;4.85;2.47;;;;;;;19.69;55.88;100387.34;5010218;28;20046;-79
2023/09/05 05:20:14;;;;;;;5.25;2.65;;;;;;;19.71;56.03;100395.22;5011752;28;20402;-79
2023/09/05 05:22:41;;;;;;;4.47;2.40;;;;;;;19.72;56.42;100394.25;5011820;28;20427;-79
2023/09/05 05:25:08;;;;;;;3.88;2.58;;;;;;;19.74;56.49;100392.31;5024614;28;20049;-79
2023/09/05 05:27:34;;;;;;;4.13;2.60;;;;;;;19.76;56.33;100391.19;5031077;28;20049;-79
2023/09/05 05:30:02;;;;;;;6.22;2.65;;;;;;;19.77;56.69;100390.22;5030830;28;20119;-79
2023/09/05 05:32:29;;;;;;;3.30;2.47;;;;;;;19.82;56.03;100381.81;5030677;28;20138;-80
2023/09/05 05:34:55;;;;;;;5.65;2.90;;;;;;;19.87;56.33;100386.75;5022630;28;20505;-80
2023/09/05 05:37:22;;;;;;;4.50;2.72;;;;;;;19.89;56.43;100382.97;5011790;28;20136;-79
2023/09/05 05:39:48;;;;;;;4.57;2.78;;;;;;;19.95;56.08;100383.44;5011544;28;20049;-79
2023/09/05 05:42:15;;;;;;;4.20;2.30;;;;;;;19.98;56.48;100385.81;5011423;28;20550;-79
2023/09/05 05:44:41;;;;;;;3.35;2.40;;;;;;;20.00;56.44;100394.59;5014776;28;20077;-80
2023/09/05 05:47:08;;;;;;;2.80;2.20;;;;;;;20.03;56.49;100392.47;5031027;28;20049;-79
2023/09/05 05:49:34;;;;;;;3.25;2.30;;;;;;;20.05;56.50;100382.53;5031202;28;20457;-80
2023/09/05 05:52:01;;;;;;;5.28;2.22;;;;;;;20.12;56.44;100395.34;5031075;28;20053;-79
2023/09/05 05:54:27;;;;;;;2.50;2.20;;;;;;;20.16;56.41;100386.94;5030969;28;20107;-79
2023/09/05 05:56:55;;;;;;;4.32;2.25;;;;;;;20.20;56.78;100387.50;5011954;28;20049;-79
2023/09/05 05:59:24;;;;;;;7.53;2.20;;;;;;;20.25;56.86;100389.75;5011249;28;20112;-78
2023/09/05 06:01:52;;;;;;;2.40;2.00;;;;;;;20.32;56.27;100390.91;5011160;28;20061;-79
2023/09/05 06:04:19;;;;;;;5.97;2.35;;;;;;;20.35;56.17;100387.97;5011504;28;20092;-78
2023/09/05 06:06:48;;;;;;;2.80;2.10;;;;;;;20.42;55.88;100391.75;5025826;28;20087;-77
2023/09/05 06:09:18;;;;;;;3.88;2.03;;;;;;;20.48;56.31;100393.06;5021516;28;20122;-78
2023/09/05 06:11:46;;;;;;;2.38;1.92;;;;;;;20.56;56.13;100397.75;5010969;28;20085;-78
2023/09/05 06:14:16;;;;;;;6.63;2.00;;;;;;;20.61;56.38;100387.47;5011159;28;20074;-79
2023/09/05 06:16:49;;;;;;;2.70;2.13;;;;;;;20.68;56.34;100396.63;5023012;28;20084;-78
2023/09/05 06:19:17;;;;;;;3.92;2.10;;;;;;;20.75;55.76;100391.56;5030626;28;20085;-79
2023/09/05 06:21:46;;;;;;;5.47;1.80;;;;;;;20.82;55.41;100397.22;5030411;28;20050;-78
2023/09/05 06:24:13;;;;;;;2.85;2.03;;;;;;;20.89;55.36;100387.66;5030641;28;20092;-79
2023/09/05 06:26:41;;;;;;;3.10;2.17;;;;;;;20.94;55.24;100393.44;5022334;28;20046;-79
2023/09/05 06:29:08;;;;;;;2.85;1.83;;;;;;;21.01;55.37;100398.25;5022355;28;20656;-79
2023/09/05 06:31:35;;;;;;;2.78;2.10;;;;;;;21.07;55.36;100400.34;5015301;28;20057;-78
2023/09/05 06:34:02;;;;;;;4.07;2.08;;;;;;;21.12;55.31;100408.81;5010971;28;20079;-80
2023/09/05 06:36:28;;;;;;;4.43;2.28;;;;;;;21.18;54.99;100410.06;5014558;28;20041;-79
2023/09/05 06:38:55;;;;;;;5.60;1.98;;;;;;;21.24;54.85;100406.00;5030528;28;20410;-80
2023/09/05 06:41:21;;;;;;;2.17;1.98;;;;;;;21.30;54.90;100408.13;5030310;28;20058;-80
2023/09/05 06:43:48;;;;;;;4.03;1.98;;;;;;;21.35;54.79;100405.84;5034666;28;20103;-79
2023/09/05 06:46:15;;;;;;;6.93;1.95;;;;;;;21.41;55.18;100399.91;5028325;28;20482;-79
2023/09/05 06:48:42;;;;;;;3.83;1.98;;;;;;;21.47;55.01;100404.72;5015221;28;20478;-80
2023/09/05 06:51:08;;;;;;;4.13;2.00;;;;;;;21.54;54.59;100388.06;5007347;28;20046;-80
2023/09/05 06:53:35;;;;;;;4.20;1.88;;;;;;;21.58;54.58;100395.69;5014570;28;20046;-79
2023/09/05 06:56:01;;;;;;;2.67;1.95;;;;;;;21.63;54.26;100389.88;5014562;28;20479;-80
2023/09/05 06:58:28;;;;;;;3.70;1.90;;;;;;;21.68;54.44;100386.78;5028990;28;20110;-80
2023/09/05 07:00:55;;;;;;;5.38;2.38;;;;;;;21.73;54.77;100390.75;5032520;28;20049;-80
2023/09/05 07:03:23;;;;;;;3.13;1.90;;;;;;;21.77;54.40;100391.28;5034333;28;20510;-79
2023/09/05 07:05:53;;;;;;;2.30;1.95;;;;;;;21.81;54.61;100394.50;5034463;28;20441;-79
2023/09/05 07:08:23;;;;;;;3.30;2.00;;;;;;;21.85;54.48;100396.78;5034088;28;20124;-80
2023/09/05 07:10:50;;;;;;;2.22;1.98;;;;;;;21.90;54.08;100392.81;5019741;28;20153;-79
2023/09/05 07:13:16;;;;;;;2.47;2.08;;;;;;;21.93;54.16;100395.16;5014427;28;20133;-79
2023/09/05 07:15:43;;;;;;;5.47;2.03;;;;;;;21.96;54.30;100400.25;5014373;28;20457;-79
2023/09/05 07:18:12;;;;;;;5.25;2.20;;;;;;;22.02;53.83;100401.50;5014363;28;20490;-80
2023/09/05 07:20:39;;;;;;;2.22;1.58;;;;;;;22.07;53.82;100401.91;5023579;28;20099;-80
2023/09/05 07:23:06;;;;;;;5.68;2.03;;;;;;;22.13;54.20;100412.88;5032070;28;20064;-80
2023/09/05 07:25:37;;;;;;;2.95;1.88;;;;;;;22.17;54.26;100410.78;5025490;28;20095;-80
2023/09/05 07:28:05;;;;;;;2.88;2.00;;;;;;;22.25;54.28;100415.38;5026201;28;20132;-80
2023/09/05 07:30:32;;;;;;;2.38;1.80;;;;;;;22.30;54.23;100401.50;5033888;28;20195;-79
2023/09/05 07:32:59;;;;;;;3.83;1.90;;;;;;;22.37;54.13;100416.03;5033386;28;20092;-79
2023/09/05 07:35:26;;;;;;;4.00;1.88;;;;;;;22.44;53.84;100413.59;5031985;28;20048;-79
2023/09/05 07:37:52;;;;;;;6.75;2.40;;;;;;;22.50;53.80;100413.00;5033208;28;20486;-79
2023/09/05 07:40:19;;;;;;;4.65;2.10;;;;;;;22.56;53.89;100406.22;5033752;28;20077;-80
2023/09/05 07:42:45;;;;;;;4.05;1.90;;;;;;;22.60;54.01;100403.09;5033380;28;20629;-79
2023/09/05 07:45:13;;;;;;;2.40;2.20;;;;;;;22.66;54.14;100412.38;5030632;28;20056;-79
2023/09/05 07:47:40;;;;;;;3.33;1.95;;;;;;;22.72;54.19;100409.09;5013659;28;20050;-79
2023/09/05 07:50:07;;;;;;;3.75;1.80;;;;;;;22.77;53.96;100404.09;5013471;28;20133;-79
2023/09/05 07:52:34;;;;;;;2.83;2.10;;;;;;;22.83;54.31;100410.69;5013514;28;20056;-79
2023/09/05 07:55:01;;;;;;;4.85;2.00;;;;;;;22.89;54.34;100409.25;5018471;28;20042;-79
2023/09/05 07:57:27;;;;;;;3.65;2.10;;;;;;;22.94;53.89;100408.81;5028863;28;20049;-79
2023/09/05 07:59:54;;;;;;;2.60;1.60;;;;;;;23.01;53.50;100417.91;5032852;28;20498;-80
2023/09/05 08:02:20;;;;;;;2.40;1.75;;;;;;;23.06;53.73;100412.94;5032898;28;20068;-79
2023/09/05 08:07:21;;;;;;;2.53;1.73;;;;;;;23.21;53.77;100421.28;5257028;22;20065;-76
2023/09/05 08:09:47;;;;;;;2.58;1.63;;;;;;;23.26;53.32;100418.16;5036623;28;20103;-76
2023/09/05 08:12:14;;;;;;;2.72;1.77;;;;;;;23.31;52.96;100410.47;5047151;28;20486;-74
2023/09/05 08:14:41;;;;;;;3.17;2.05;;;;;;;23.37;53.57;100403.66;5033431;28;20504;-75
2023/09/05 08:17:07;;;;;;;4.50;1.88;;;;;;;23.44;53.09;100412.81;5033616;28;20107;-75
2023/09/05 08:19:34;;;;;;;3.20;1.90;;;;;;;23.50;53.24;100411.31;5033477;28;20045;-74
2023/09/05 08:22:01;;;;;;;3.95;1.98;;;;;;;23.55;53.44;100412.53;5033840;28;20048;-79
2023/09/05 08:24:27;;;;;;;2.97;1.50;;;;;;;23.62;53.13;100411.91;5053381;28;20060;-75
2023/09/05 08:26:54;;;;;;;1.77;1.45;;;;;;;23.68;53.55;100417.50;5053273;28;20052;-73
2023/09/05 08:29:23;;;;;;;2.78;1.80;;;;;;;23.76;52.93;100407.78;5053174;28;20110;-78
2023/09/05 08:31:50;;;;;;;2.15;1.60;;;;;;;23.84;52.98;100415.09;5053043;28;20464;-75
2023/09/05 08:34:16;;;;;;;4.35;2.03;;;;;;;23.90;53.38;100412.59;5035834;28;20045;-74
2023/09/05 08:36:43;;;;;;;2.55;1.80;;;;;;;23.97;53.02;100410.13;5032985;28;20060;-75
2023/09/05 08:39:10;;;;;;;4.80;1.90;;;;;;;24.05;53.54;100409.31;5033306;28;20402;-78
2023/09/05 08:41:36;;;;;;;2.85;2.20;;;;;;;24.13;53.66;100400.47;5033042;28;20120;-76
2023/09/05 08:44:04;;;;;;;5.85;1.80;;;;;;;24.20;53.34;100402.38;5027202;28;20065;-77
2023/09/05 08:46:31;;;;;;;2.10;1.90;;;;;;;24.30;53.26;100398.69;5053142;28;20456;-75
2023/09/05 08:48:58;;;;;;;3.38;1.98;;;;;;;24.37;52.58;100396.19;5052760;28;20049;-75
2023/09/05 08:51:35;;;;;;;1.77;1.55;;;;;;;24.45;52.62;100393.53;5052458;28;20076;-74
2023/09/05 08:54:05;;;;;;;4.20;1.92;;;;;;;24.56;52.44;100395.09;5025357;28;20045;-73
2023/09/05 08:56:32;;;;;;;6.95;1.92;;;;;;;24.67;52.16;100399.31;5045983;28;20694;-74
2023/09/05 08:59:01;;;;;;;1.73;1.55;;;;;;;24.75;52.14;100396.66;5050836;28;20475;-75
2023/09/05 09:01:29;;;;;;;5.22;1.95;;;;;;;24.85;51.98;100394.66;5032489;28;20049;-75
2023/09/05 09:03:57;;;;;;;2.85;1.90;;;;;;;24.96;51.87;100392.66;5032525;28;20054;-76
2023/09/05 09:06:24;;;;;;;2.55;1.70;;;;;;;25.05;51.73;100388.97;5031548;28;20084;-76
2023/09/05 09:08:52;;;;;;;4.25;2.05;;;;;;;25.17;51.57;100388.63;5037725;28;20053;-74
2023/09/05 09:11:22;;;;;;;1.75;1.25;;;;;;;25.26;49.73;100386.78;5038479;28;20064;-75
2023/09/05 09:13:57;;;;;;;1.83;1.23;;;;;;;25.36;50.03;100382.91;5044281;28;20391;-75
2023/09/05 09:16:23;;;;;;;2.63;1.40;;;;;;;25.46;49.37;100381.88;5032321;28;20050;-73
2023/09/05 09:19:00;;;;;;;2.17;1.33;;;;;;;25.55;48.48;100383.56;5044471;28;20056;-75
2023/09/05 09:21:29;;;;;;;1.70;1.13;;;;;;;25.70;49.00;100382.88;5032541;28;20061;-75
2023/09/05 09:24:06;;;;;;;2.20;1.38;;;;;;;25.80;49.11;100375.44;5032136;28;20505;-75
2023/09/05 09:26:33;;;;;;;1.33;1.10;;;;;;;25.94;48.47;100375.75;5032219;28;20151;-78
2023/09/05 09:29:00;;;;;;;2.95;1.30;;;;;;;26.04;48.62;100378.25;5033914;28;20057;-76
2023/09/05 09:31:27;;;;;;;1.48;1.30;;;;;;;26.15;48.31;100385.94;5051995;28;20065;-75
2023/09/05 09:33:56;;;;;;;4.10;1.30;;;;;;;26.25;48.31;100378.50;5034273;28;20098;-76
2023/09/05 09:36:31;;;;;;;1.48;1.30;;;;;;;26.33;48.47;100380.34;5052069;28;20052;-76
2023/09/05 09:38:58;;;;;;;1.63;1.00;;;;;;;26.47;48.03;100377.91;5051978;28;20057;-76
2023/09/05 09:41:25;;;;;;;1.75;1.20;;;;;;;26.57;47.72;100383.09;5032094;28;20095;-76
2023/09/05 09:43:57;;;;;;;1.35;1.10;;;;;;;26.66;48.23;100377.44;5032079;28;20049;-76
2023/09/05 09:46:24;;;;;;;3.67;1.30;;;;;;;26.79;47.45;100378.69;5032225;28;20053;-77
2023/09/05 09:48:53;;;;;;;1.55;1.05;;;;;;;26.89;48.06;100384.72;5031848;28;20058;-75
2023/09/05 09:51:24;;;;;;;2.90;1.30;;;;;;;27.00;46.92;100378.09;5032542;28;20505;-75
2023/09/05 09:53:53;;;;;;;1.20;1.10;;;;;;;27.13;47.43;100387.44;5031633;28;20095;-75
2023/09/05 09:56:23;;;;;;;2.22;1.10;;;;;;;27.24;46.84;100383.47;5031627;28;20557;-75
2023/09/05 09:58:55;;;;;;;2.03;1.25;;;;;;;27.36;48.14;100381.16;5031847;28;20076;-76
2023/09/05 10:01:23;;;;;;;1.20;1.10;;;;;;;27.48;47.96;100390.50;5044521;28;20049;-75
2023/09/05 10:03:50;;;;;;;1.85;1.27;;;;;;;27.60;48.09;100381.94;5051462;28;20056;-76
2023/09/05 10:06:19;;;;;;;2.15;1.30;;;;;;;27.70;48.08;100386.09;5051593;28;20136;-76
2023/09/05 10:08:46;;;;;;;1.48;1.38;;;;;;;27.83;48.88;100387.31;5033665;28;20088;-76
2023/09/05 10:11:14;;;;;;;1.83;1.20;;;;;;;27.96;49.08;100386.66;5042221;28;20052;-75
2023/09/05 10:13:42;;;;;;;2.55;1.23;;;;;;;28.08;48.89;100384.31;5013962;28;20499;-74
2023/09/05 10:16:10;;;;;;;2.17;1.52;;;;;;;28.22;49.90;100386.16;5031430;28;20099;-75
2023/09/05 10:18:43;;;;;;;4.20;1.30;;;;;;;28.35;48.24;100384.66;5031249;28;20057;-76
2023/09/05 10:21:11;;;;;;;1.65;1.45;;;;;;;28.49;48.73;100382.97;5019413;28;20049;-75
2023/09/05 10:23:39;;;;;;;5.55;1.48;;;;;;;28.61;47.63;100389.56;5051595;28;20052;-75
2023/09/05 10:26:07;;;;;;;2.22;1.40;;;;;;;28.72;47.50;100377.38;5051364;28;20183;-75
2023/09/05 10:28:33;;;;;;;2.88;1.30;;;;;;;28.84;46.76;100375.00;5051296;28;20402;-78
2023/09/05 10:31:15;;;;;;;2.00;1.20;;;;;;;28.91;45.82;100366.97;5049255;28;20045;-76
2023/09/05 10:33:46;;;;;;;1.27;1.17;;;;;;;29.05;46.24;100369.78;5031439;28;20049;-77
2023/09/05 10:36:39;;;;;;;1.50;1.20;;;;;;;29.12;45.62;100370.69;5031408;28;20053;-77
2023/09/05 10:39:22;;;;;;;1.90;1.20;;;;;;;29.22;45.79;100365.75;5031242;28;20144;-75
2023/09/05 10:41:49;;;;;;;0.95;0.80;;;;;;;29.37;45.74;100370.25;5036022;28;20501;-75
2023/09/05 10:44:16;;;;;;;1.52;1.02;;;;;;;29.45;45.51;100361.97;5041596;28;20114;-75
2023/09/05 10:46:42;;;;;;;1.30;1.00;;;;;;;29.55;45.78;100363.50;5043608;28;20068;-74
2023/09/05 10:49:14;;;;;;;2.85;1.23;;;;;;;29.63;45.13;100366.06;5051039;28;20041;-75
2023/09/05 10:52:20;;;;;;;1.75;1.02;;;;;;;29.72;46.41;100354.03;5049380;28;20134;-75
2023/09/05 10:54:47;;;;;;;1.48;1.30;;;;;;;29.89;45.77;100359.97;4969725;28;20050;-76
2023/09/05 10:57:52;;;;;;;2.00;1.05;;;;;;;30.01;46.02;100359.41;5020212;28;20049;-77
2023/09/05 11:00:22;;;;;;;1.27;1.13;;;;;;;30.21;45.01;100355.94;4969921;28;20058;-75
2023/09/05 11:02:49;;;;;;;1.73;1.35;;;;;;;30.42;44.93;100357.69;4977087;28;20495;-76
2023/09/05 11:05:18;;;;;;;1.23;1.02;;;;;;;30.67;46.34;100357.97;5010414;28;20484;-75
2023/09/05 11:07:50;;;;;;;2.65;1.13;;;;;;;31.08;45.92;100355.28;5031258;28;20049;-74
2023/09/05 11:10:25;;;;;;;1.50;1.05;;;;;;;31.62;45.03;100346.28;5031111;28;20100;-75
2023/09/05 11:12:52;;;;;;;1.63;1.00;;;;;;;32.25;45.85;100350.22;5031875;28;20042;-75
2023/09/05 11:15:29;;;;;;;0.93;0.93;;;;;;;32.97;42.51;100351.06;5030867;28;20107;-75
2023/09/05 11:18:00;;;;;;;3.05;0.85;;;;;;;33.70;41.80;100343.28;5030999;28;20081;-75
2023/09/05 11:20:43;;;;;;;1.00;0.95;;;;;;;34.46;40.69;100339.38;5030968;28;20053;-75
2023/09/05 11:23:17;;;;;;;1.00;0.90;;;;;;;35.24;39.83;100344.06;5034964;28;20103;-75
2023/09/05 11:25:53;;;;;;;1.58;1.00;;;;;;;35.94;37.29;100337.88;5033008;28;20099;-76
2023/09/05 11:28:24;;;;;;;2.15;0.98;;;;;;;36.61;37.40;100341.06;5050754;28;20053;-74
2023/09/05 11:30:55;;;;;;;2.03;0.90;;;;;;;37.20;37.09;100333.53;5054076;28;20494;-75
2023/09/05 11:33:22;;;;;;;1.42;1.00;;;;;;;37.76;36.27;100330.75;5043757;28;20146;-75